Terminal Aerodrome Forecast
Issued by NWS Shreveport, LA

Home | Current Version | Previous Version | Text Only | Print | Product List | Glossary On
Versions: 1 2 3 4 5 6 7 8 9 10 11 12 13 14 15 16 17 18 19 20 21 22 23 24 25 26 27 28
105
FTUS44 KSHV 010816 AAA
TAFMLU
TAF AMD
KMLU 010816Z 0108/0206 VRB03KT P6SM SCT015 SCT035
      TEMPO 0108/0110 BKN015
     FM011000 VRB03KT P6SM BKN015
     FM011600 10005KT P6SM BKN020
     FM011800 10005KT P6SM BKN035=

USA.gov is the U.S. government's official web portal to all federal, state and local government web resources and services.